sensor_id;sensor_type;location;lat;lon;timestamp;temperature;humidity
47813;DHT22;34221;45.296;9.516;2024-02-28T14:16:14;14.70;99.90
47813;DHT22;34221;45.296;9.516;2024-02-28T14:16:29;14.60;99.90
47813;DHT22;34221;45.296;9.516;2024-02-28T14:16:46;14.60;99.90
47813;DHT22;34221;45.296;9.516;2024-02-28T14:17:01;14.60;99.90
47813;DHT22;34221;45.296;9.516;2024-02-28T14:17:16;14.70;99.90
47813;DHT22;34221;45.296;9.516;2024-02-28T14:17:31;14.70;99.90
47813;DHT22;34221;45.296;9.516;2024-02-28T14:17:46;14.70;99.90
47813;DHT22;34221;45.296;9.516;2024-02-28T14:18:01;14.70;99.90
47813;DHT22;34221;45.296;9.516;2024-02-28T14:18:16;14.70;99.90
47813;DHT22;34221;45.296;9.516;2024-02-28T14:18:32;14.80;99.90
47813;DHT22;34221;45.296;9.516;2024-02-28T14:18:47;14.80;99.90
47813;DHT22;34221;45.296;9.516;2024-02-28T14:19:02;14.70;99.90
47813;DHT22;34221;45.296;9.516;2024-02-28T14:19:17;14.70;99.90
47813;DHT22;34221;45.296;9.516;2024-02-28T14:19:32;14.70;99.90
47813;DHT22;34221;45.296;9.516;2024-02-28T14:19:46;14.70;99.90
47813;DHT22;34221;45.296;9.516;2024-02-28T14:20:03;14.80;99.90
47813;DHT22;34221;45.296;9.516;2024-02-28T14:20:18;14.80;99.90
47813;DHT22;34221;45.296;9.516;2024-02-28T14:20:33;14.80;99.90
47813;DHT22;34221;45.296;9.516;2024-02-28T14:20:47;14.90;99.90
47813;DHT22;34221;45.296;9.516;2024-02-28T14:21:02;14.80;99.90
47813;DHT22;34221;45.296;9.516;2024-02-28T14:21:17;14.80;99.90
47813;DHT22;34221;45.296;9.516;2024-02-28T14:21:32;14.70;99.90
47813;DHT22;34221;45.296;9.516;2024-02-28T14:21:47;14.70;99.90
47813;DHT22;34221;45.296;9.516;2024-02-28T14:22:03;14.70;99.90
47813;DHT22;34221;45.296;9.516;2024-02-28T14:22:18;14.70;99.90
47813;DHT22;34221;45.296;9.516;2024-02-28T14:22:33;14.70;99.90
47813;DHT22;34221;45.296;9.516;2024-02-28T14:22:48;14.80;99.90
47813;DHT22;34221;45.296;9.516;2024-02-28T14:23:03;14.80;99.90
47813;DHT22;34221;45.296;9.516;2024-02-28T14:23:18;14.80;99.90
47813;DHT22;34221;45.296;9.516;2024-02-28T14:23:33;14.90;99.90
47813;DHT22;34221;45.296;9.516;2024-02-28T14:23:47;14.90;99.90
47813;DHT22;34221;45.296;9.516;2024-02-28T14:24:03;14.90;99.90
47813;DHT22;34221;45.296;9.516;2024-02-28T14:24:17;15.00;99.90
47813;DHT22;34221;45.296;9.516;2024-02-28T14:24:33;15.00;99.90
47813;DHT22;34221;45.296;9.516;2024-02-28T14:24:48;15.00;99.90
47813;DHT22;34221;45.296;9.516;2024-02-28T14:25:03;15.00;99.90
47813;DHT22;34221;45.296;9.516;2024-02-28T14:25:19;15.00;99.90
47813;DHT22;34221;45.296;9.516;2024-02-28T14:25:36;15.00;99.90
47813;DHT22;34221;45.296;9.516;2024-02-28T14:25:51;15.00;99.90
47813;DHT22;34221;45.296;9.516;2024-02-28T14:26:05;15.00;99.90
47813;DHT22;34221;45.296;9.516;2024-02-28T14:26:21;14.90;99.90
47813;DHT22;34221;45.296;9.516;2024-02-28T14:26:38;14.90;99.90
47813;DHT22;34221;45.296;9.516;2024-02-28T14:26:53;15.00;99.90
47813;DHT22;34221;45.296;9.516;2024-02-28T14:27:08;15.00;99.90
47813;DHT22;34221;45.296;9.516;2024-02-28T14:27:23;15.00;99.90
47813;DHT22;34221;45.296;9.516;2024-02-28T14:27:41;15.00;99.90
47813;DHT22;34221;45.296;9.516;2024-02-28T14:27:56;14.90;99.90
47813;DHT22;34221;45.296;9.516;2024-02-28T14:28:10;15.00;99.90
47813;DHT22;34221;45.296;9.516;2024-02-28T14:28:25;15.00;99.90
47813;DHT22;34221;45.296;9.516;2024-02-28T14:28:40;15.00;99.90
47813;DHT22;34221;45.296;9.516;2024-02-28T14:28:55;15.00;99.90
47813;DHT22;34221;45.296;9.516;2024-02-28T14:29:11;15.10;99.90
47813;DHT22;34221;45.296;9.516;2024-02-28T14:29:25;15.10;99.90
47813;DHT22;34221;45.296;9.516;2024-02-28T14:29:40;15.20;99.90
47813;DHT22;34221;45.296;9.516;2024-02-28T14:29:55;15.20;99.90
47813;DHT22;34221;45.296;9.516;2024-02-28T14:30:11;15.20;99.90
47813;DHT22;34221;45.296;9.516;2024-02-28T14:30:26;15.20;99.90
47813;DHT22;34221;45.296;9.516;2024-02-28T14:30:41;15.20;99.90
47813;DHT22;34221;45.296;9.516;2024-02-28T14:30:57;15.30;99.90
47813;DHT22;34221;45.296;9.516;2024-02-28T14:31:12;15.20;99.90
47813;DHT22;34221;45.296;9.516;2024-02-28T14:31:26;15.20;99.90
47813;DHT22;34221;45.296;9.516;2024-02-28T14:31:41;15.20;99.90
47813;DHT22;34221;45.296;9.516;2024-02-28T14:31:56;15.20;99.90
47813;DHT22;34221;45.296;9.516;2024-02-28T14:32:14;15.10;99.90
47813;DHT22;34221;45.296;9.516;2024-02-28T14:32:29;15.10;99.90
47813;DHT22;34221;45.296;9.516;2024-02-28T14:32:44;15.10;99.90
47813;DHT22;34221;45.296;9.516;2024-02-28T14:32:59;15.10;99.90
47813;DHT22;34221;45.296;9.516;2024-02-28T14:33:14;15.10;99.90
47813;DHT22;34221;45.296;9.516;2024-02-28T14:33:28;15.10;99.90
47813;DHT22;34221;45.296;9.516;2024-02-28T14:33:43;15.10;99.90
47813;DHT22;34221;45.296;9.516;2024-02-28T14:34:00;15.00;99.90
47813;DHT22;34221;45.296;9.516;2024-02-28T14:34:14;15.00;99.90
47813;DHT22;34221;45.296;9.516;2024-02-28T14:34:29;15.00;99.90
47813;DHT22;34221;45.296;9.516;2024-02-28T14:34:46;15.00;99.90
47813;DHT22;34221;45.296;9.516;2024-02-28T14:35:01;15.00;99.90
47813;DHT22;34221;45.296;9.516;2024-02-28T14:35:15;15.00;99.90
47813;DHT22;34221;45.296;9.516;2024-02-28T14:35:30;15.10;99.90
47813;DHT22;34221;45.296;9.516;2024-02-28T14:35:45;15.00;99.90
47813;DHT22;34221;45.296;9.516;2024-02-28T14:36:00;15.00;99.90
47813;DHT22;34221;45.296;9.516;2024-02-28T14:36:14;15.00;99.90
47813;DHT22;34221;45.296;9.516;2024-02-28T14:36:29;14.90;99.90
47813;DHT22;34221;45.296;9.516;2024-02-28T14:36:44;14.90;99.90
47813;DHT22;34221;45.296;9.516;2024-02-28T14:36:59;15.00;99.90
47813;DHT22;34221;45.296;9.516;2024-02-28T14:37:13;14.90;99.90
47813;DHT22;34221;45.296;9.516;2024-02-28T14:37:28;15.00;99.90
47813;DHT22;34221;45.296;9.516;2024-02-28T14:37:44;15.00;99.90
47813;DHT22;34221;45.296;9.516;2024-02-28T14:37:58;14.90;99.90
47813;DHT22;34221;45.296;9.516;2024-02-28T14:38:13;15.00;99.90
47813;DHT22;34221;45.296;9.516;2024-02-28T14:38:28;15.00;99.90
47813;DHT22;34221;45.296;9.516;2024-02-28T14:38:43;15.00;99.90
47813;DHT22;34221;45.296;9.516;2024-02-28T14:38:57;15.00;99.90
47813;DHT22;34221;45.296;9.516;2024-02-28T14:39:12;15.00;99.90
47813;DHT22;34221;45.296;9.516;2024-02-28T14:39:29;14.90;99.90
47813;DHT22;34221;45.296;9.516;2024-02-28T14:39:44;15.00;99.90
47813;DHT22;34221;45.296;9.516;2024-02-28T14:39:59;14.90;99.90
47813;DHT22;34221;45.296;9.516;2024-02-28T14:40:20;14.90;99.90
47813;DHT22;34221;45.296;9.516;2024-02-28T14:40:35;15.00;99.90
47813;DHT22;34221;45.296;9.516;2024-02-28T14:40:50;15.00;99.90
47813;DHT22;34221;45.296;9.516;2024-02-28T14:41:05;15.00;99.90
47813;DHT22;34221;45.296;9.516;2024-02-28T14:41:20;15.00;99.90
47813;DHT22;34221;45.296;9.516;2024-02-28T14:41:36;15.00;99.90
47813;DHT22;34221;45.296;9.516;2024-02-28T14:41:50;14.90;99.90
47813;DHT22;34221;45.296;9.516;2024-02-28T14:42:05;14.90;99.90
47813;DHT22;34221;45.296;9.516;2024-02-28T14:42:23;14.90;99.90
47813;DHT22;34221;45.296;9.516;2024-02-28T14:42:42;14.90;99.90
47813;DHT22;34221;45.296;9.516;2024-02-28T14:42:57;14.80;99.90
47813;DHT22;34221;45.296;9.516;2024-02-28T14:43:11;14.90;99.90
47813;DHT22;34221;45.296;9.516;2024-02-28T14:43:26;14.90;99.90
47813;DHT22;34221;45.296;9.516;2024-02-28T14:43:44;14.90;99.90
47813;DHT22;34221;45.296;9.516;2024-02-28T14:43:59;14.90;99.90
47813;DHT22;34221;45.296;9.516;2024-02-28T14:44:14;14.90;99.90
47813;DHT22;34221;45.296;9.516;2024-02-28T14:44:31;14.90;99.90
47813;DHT22;34221;45.296;9.516;2024-02-28T14:44:46;14.90;99.90
47813;DHT22;34221;45.296;9.516;2024-02-28T14:45:00;14.90;99.90
47813;DHT22;34221;45.296;9.516;2024-02-28T14:45:15;14.90;99.90
47813;DHT22;34221;45.296;9.516;2024-02-28T14:45:30;14.90;99.90
47813;DHT22;34221;45.296;9.516;2024-02-28T14:45:46;14.80;99.90
47813;DHT22;34221;45.296;9.516;2024-02-28T14:46:01;14.80;99.90
47813;DHT22;34221;45.296;9.516;2024-02-28T14:46:16;14.80;99.90
47813;DHT22;34221;45.296;9.516;2024-02-28T14:46:33;14.80;99.90
47813;DHT22;34221;45.296;9.516;2024-02-28T14:46:48;14.70;99.90
47813;DHT22;34221;45.296;9.516;2024-02-28T14:47:03;14.70;99.90
47813;DHT22;34221;45.296;9.516;2024-02-28T14:47:17;14.70;99.90
47813;DHT22;34221;45.296;9.516;2024-02-28T14:47:32;14.80;99.90
47813;DHT22;34221;45.296;9.516;2024-02-28T14:47:48;14.80;99.90
47813;DHT22;34221;45.296;9.516;2024-02-28T14:48:03;14.80;99.90
47813;DHT22;34221;45.296;9.516;2024-02-28T14:48:18;14.90;99.90
47813;DHT22;34221;45.296;9.516;2024-02-28T14:48:32;14.90;99.90
47813;DHT22;34221;45.296;9.516;2024-02-28T14:48:47;14.90;99.90
47813;DHT22;34221;45.296;9.516;2024-02-28T14:49:06;14.90;99.90
47813;DHT22;34221;45.296;9.516;2024-02-28T14:49:21;15.00;99.90
47813;DHT22;34221;45.296;9.516;2024-02-28T14:49:36;15.00;99.90
47813;DHT22;34221;45.296;9.516;2024-02-28T14:49:51;15.10;99.90
47813;DHT22;34221;45.296;9.516;2024-02-28T14:50:07;15.20;99.90
47813;DHT22;34221;45.296;9.516;2024-02-28T14:50:25;15.20;99.90
47813;DHT22;34221;45.296;9.516;2024-02-28T14:50:40;15.20;99.90
47813;DHT22;34221;45.296;9.516;2024-02-28T14:50:56;15.20;99.90
47813;DHT22;34221;45.296;9.516;2024-02-28T14:51:26;15.30;99.90
47813;DHT22;34221;45.296;9.516;2024-02-28T14:51:41;15.30;99.90
47813;DHT22;34221;45.296;9.516;2024-02-28T14:52:03;15.30;99.90
47813;DHT22;34221;45.296;9.516;2024-02-28T14:52:18;15.30;99.90
47813;DHT22;34221;45.296;9.516;2024-02-28T14:52:33;15.40;99.90
47813;DHT22;34221;45.296;9.516;2024-02-28T14:52:47;15.40;99.90
47813;DHT22;34221;45.296;9.516;2024-02-28T14:53:03;15.40;99.90
47813;DHT22;34221;45.296;9.516;2024-02-28T14:53:18;15.50;99.90
47813;DHT22;34221;45.296;9.516;2024-02-28T14:53:35;15.50;99.90
47813;DHT22;34221;45.296;9.516;2024-02-28T14:53:49;15.50;99.90
47813;DHT22;34221;45.296;9.516;2024-02-28T14:54:04;15.50;99.90
47813;DHT22;34221;45.296;9.516;2024-02-28T14:54:19;15.50;99.90
47813;DHT22;34221;45.296;9.516;2024-02-28T14:54:37;15.50;99.90
47813;DHT22;34221;45.296;9.516;2024-02-28T14:54:53;15.50;99.90
47813;DHT22;34221;45.296;9.516;2024-02-28T14:55:10;15.50;99.90
47813;DHT22;34221;45.296;9.516;2024-02-28T14:55:25;15.50;99.90
47813;DHT22;34221;45.296;9.516;2024-02-28T14:55:39;15.50;99.90
47813;DHT22;34221;45.296;9.516;2024-02-28T14:55:54;15.50;99.90
47813;DHT22;34221;45.296;9.516;2024-02-28T14:56:09;15.50;99.90
47813;DHT22;34221;45.296;9.516;2024-02-28T14:56:39;15.50;99.90
47813;DHT22;34221;45.296;9.516;2024-02-28T14:56:53;15.50;99.90
47813;DHT22;34221;45.296;9.516;2024-02-28T14:57:08;15.60;99.90
47813;DHT22;34221;45.296;9.516;2024-02-28T14:57:23;15.60;99.90
47813;DHT22;34221;45.296;9.516;2024-02-28T14:57:39;15.60;99.90
47813;DHT22;34221;45.296;9.516;2024-02-28T14:57:57;15.60;99.90
47813;DHT22;34221;45.296;9.516;2024-02-28T14:58:12;15.60;99.90
47813;DHT22;34221;45.296;9.516;2024-02-28T14:58:26;15.60;99.90
47813;DHT22;34221;45.296;9.516;2024-02-28T14:58:41;15.60;99.90
47813;DHT22;34221;45.296;9.516;2024-02-28T14:58:56;15.60;99.90
47813;DHT22;34221;45.296;9.516;2024-02-28T14:59:11;15.60;99.90
47813;DHT22;34221;45.296;9.516;2024-02-28T14:59:25;15.60;99.90
47813;DHT22;34221;45.296;9.516;2024-02-28T14:59:40;15.60;99.90
47813;DHT22;34221;45.296;9.516;2024-02-28T14:59:55;15.60;99.90
47813;DHT22;34221;45.296;9.516;2024-02-28T15:00:10;15.50;99.90
47813;DHT22;34221;45.296;9.516;2024-02-28T15:00:28;15.50;99.90
47813;DHT22;34221;45.296;9.516;2024-02-28T15:00:43;15.60;99.90
47813;DHT22;34221;45.296;9.516;2024-02-28T15:01:01;15.50;99.90
47813;DHT22;34221;45.296;9.516;2024-02-28T15:01:17;15.60;99.90
47813;DHT22;34221;45.296;9.516;2024-02-28T15:01:31;15.60;99.90
47813;DHT22;34221;45.296;9.516;2024-02-28T15:01:46;15.60;99.90
47813;DHT22;34221;45.296;9.516;2024-02-28T15:02:01;15.60;99.90
47813;DHT22;34221;45.296;9.516;2024-02-28T15:02:15;15.50;99.90
47813;DHT22;34221;45.296;9.516;2024-02-28T15:02:30;15.50;99.90
47813;DHT22;34221;45.296;9.516;2024-02-28T15:02:45;15.60;99.90
47813;DHT22;34221;45.296;9.516;2024-02-28T15:03:00;15.60;99.90
47813;DHT22;34221;45.296;9.516;2024-02-28T15:03:14;15.60;99.90
47813;DHT22;34221;45.296;9.516;2024-02-28T15:03:30;15.60;99.90
47813;DHT22;34221;45.296;9.516;2024-02-28T15:03:45;15.60;99.90
47813;DHT22;34221;45.296;9.516;2024-02-28T15:04:00;15.60;99.90
47813;DHT22;34221;45.296;9.516;2024-02-28T15:04:16;15.60;99.90
47813;DHT22;34221;45.296;9.516;2024-02-28T15:04:30;15.60;99.90
47813;DHT22;34221;45.296;9.516;2024-02-28T15:04:45;15.60;99.90
47813;DHT22;34221;45.296;9.516;2024-02-28T15:05:00;15.60;99.90
47813;DHT22;34221;45.296;9.516;2024-02-28T15:05:16;15.60;99.90
47813;DHT22;34221;45.296;9.516;2024-02-28T15:05:31;15.70;99.90
47813;DHT22;34221;45.296;9.516;2024-02-28T15:05:45;15.70;99.90
47813;DHT22;34221;45.296;9.516;2024-02-28T15:06:01;15.70;99.90
47813;DHT22;34221;45.296;9.516;2024-02-28T15:06:16;15.70;99.90
47813;DHT22;34221;45.296;9.516;2024-02-28T15:06:31;15.70;99.90
47813;DHT22;34221;45.296;9.516;2024-02-28T15:06:45;15.70;99.90
47813;DHT22;34221;45.296;9.516;2024-02-28T15:07:00;15.80;99.90
47813;DHT22;34221;45.296;9.516;2024-02-28T15:07:17;15.80;99.90
47813;DHT22;34221;45.296;9.516;2024-02-28T15:07:33;15.80;99.90
47813;DHT22;34221;45.296;9.516;2024-02-28T15:07:48;15.80;99.90
47813;DHT22;34221;45.296;9.516;2024-02-28T15:08:04;15.80;99.90
47813;DHT22;34221;45.296;9.516;2024-02-28T15:08:18;15.80;99.90
47813;DHT22;34221;45.296;9.516;2024-02-28T15:08:33;15.80;99.90
47813;DHT22;34221;45.296;9.516;2024-02-28T15:08:48;15.90;99.90
47813;DHT22;34221;45.296;9.516;2024-02-28T15:09:03;15.90;99.90
47813;DHT22;34221;45.296;9.516;2024-02-28T15:09:20;15.90;99.90
47813;DHT22;34221;45.296;9.516;2024-02-28T15:09:35;15.90;99.90
47813;DHT22;34221;45.296;9.516;2024-02-28T15:09:50;15.90;99.90
47813;DHT22;34221;45.296;9.516;2024-02-28T15:10:06;15.90;99.90
47813;DHT22;34221;45.296;9.516;2024-02-28T15:10:21;15.90;99.90
47813;DHT22;34221;45.296;9.516;2024-02-28T15:10:36;15.90;99.90
47813;DHT22;34221;45.296;9.516;2024-02-28T15:10:50;15.90;99.90
47813;DHT22;34221;45.296;9.516;2024-02-28T15:11:07;15.90;99.90
47813;DHT22;34221;45.296;9.516;2024-02-28T15:11:22;15.90;99.90
47813;DHT22;34221;45.296;9.516;2024-02-28T15:11:37;15.90;99.90
47813;DHT22;34221;45.296;9.516;2024-02-28T15:11:52;15.90;99.90
47813;DHT22;34221;45.296;9.516;2024-02-28T15:12:08;15.90;99.90
47813;DHT22;34221;45.296;9.516;2024-02-28T15:12:23;15.90;99.90
47813;DHT22;34221;45.296;9.516;2024-02-28T15:12:38;15.90;99.90
47813;DHT22;34221;45.296;9.516;2024-02-28T15:12:55;15.80;99.90
47813;DHT22;34221;45.296;9.516;2024-02-28T15:13:10;15.90;99.90
47813;DHT22;34221;45.296;9.516;2024-02-28T15:13:24;15.90;99.90
47813;DHT22;34221;45.296;9.516;2024-02-28T15:13:39;15.90;99.90
47813;DHT22;34221;45.296;9.516;2024-02-28T15:13:54;15.80;99.90
47813;DHT22;34221;45.296;9.516;2024-02-28T15:14:09;15.80;99.90
47813;DHT22;34221;45.296;9.516;2024-02-28T15:14:23;15.80;99.90
47813;DHT22;34221;45.296;9.516;2024-02-28T15:14:39;15.70;99.90
47813;DHT22;34221;45.296;9.516;2024-02-28T15:14:54;15.70;99.90
47813;DHT22;34221;45.296;9.516;2024-02-28T15:15:14;15.70;99.90
47813;DHT22;34221;45.296;9.516;2024-02-28T15:15:29;15.70;99.90
47813;DHT22;34221;45.296;9.516;2024-02-28T15:15:44;15.70;99.90
47813;DHT22;34221;45.296;9.516;2024-02-28T15:15:59;15.70;99.90
47813;DHT22;34221;45.296;9.516;2024-02-28T15:16:14;15.70;99.90
47813;DHT22;34221;45.296;9.516;2024-02-28T15:16:28;15.70;99.90
47813;DHT22;34221;45.296;9.516;2024-02-28T15:16:43;15.60;99.90
47813;DHT22;34221;45.296;9.516;2024-02-28T15:16:58;15.60;99.90
47813;DHT22;34221;45.296;9.516;2024-02-28T15:17:12;15.60;99.90
47813;DHT22;34221;45.296;9.516;2024-02-28T15:17:27;15.60;99.90
47813;DHT22;34221;45.296;9.516;2024-02-28T15:17:42;15.60;99.90
47813;DHT22;34221;45.296;9.516;2024-02-28T15:17:56;15.50;99.90
47813;DHT22;34221;45.296;9.516;2024-02-28T15:18:12;15.50;99.90
47813;DHT22;34221;45.296;9.516;2024-02-28T15:18:27;15.50;99.90
47813;DHT22;34221;45.296;9.516;2024-02-28T15:18:41;15.50;99.90
47813;DHT22;34221;45.296;9.516;2024-02-28T15:18:56;15.50;99.90
47813;DHT22;34221;45.296;9.516;2024-02-28T15:19:11;15.40;99.90
47813;DHT22;34221;45.296;9.516;2024-02-28T15:19:26;15.40;99.90
47813;DHT22;34221;45.296;9.516;2024-02-28T15:19:41;15.40;99.90
47813;DHT22;34221;45.296;9.516;2024-02-28T15:19:56;15.40;99.90
47813;DHT22;34221;45.296;9.516;2024-02-28T15:20:11;15.40;99.90
47813;DHT22;34221;45.296;9.516;2024-02-28T15:20:26;15.40;99.90
47813;DHT22;34221;45.296;9.516;2024-02-28T15:20:41;15.40;99.90
47813;DHT22;34221;45.296;9.516;2024-02-28T15:20:55;15.40;99.90
47813;DHT22;34221;45.296;9.516;2024-02-28T15:21:10;15.30;99.90
47813;DHT22;34221;45.296;9.516;2024-02-28T15:21:25;15.30;99.90
47813;DHT22;34221;45.296;9.516;2024-02-28T15:21:41;15.40;99.90
47813;DHT22;34221;45.296;9.516;2024-02-28T15:21:56;15.30;99.90
47813;DHT22;34221;45.296;9.516;2024-02-28T15:22:11;15.30;99.90
47813;DHT22;34221;45.296;9.516;2024-02-28T15:22:26;15.30;99.90
47813;DHT22;34221;45.296;9.516;2024-02-28T15:22:41;15.30;99.90
47813;DHT22;34221;45.296;9.516;2024-02-28T15:22:56;15.20;99.90
47813;DHT22;34221;45.296;9.516;2024-02-28T15:23:10;15.30;99.90
47813;DHT22;34221;45.296;9.516;2024-02-28T15:23:25;15.30;99.90
47813;DHT22;34221;45.296;9.516;2024-02-28T15:23:40;15.20;99.90
47813;DHT22;34221;45.296;9.516;2024-02-28T15:23:54;15.20;99.90
47813;DHT22;34221;45.296;9.516;2024-02-28T15:24:09;15.20;99.90
47813;DHT22;34221;45.296;9.516;2024-02-28T15:24:24;15.20;99.90
47813;DHT22;34221;45.296;9.516;2024-02-28T15:24:40;15.20;99.90
47813;DHT22;34221;45.296;9.516;2024-02-28T15:24:56;15.20;99.90
47813;DHT22;34221;45.296;9.516;2024-02-28T15:25:11;15.20;99.90
47813;DHT22;34221;45.296;9.516;2024-02-28T15:25:26;15.20;99.90
47813;DHT22;34221;45.296;9.516;2024-02-28T15:25:40;15.10;99.90
47813;DHT22;34221;45.296;9.516;2024-02-28T15:25:55;15.10;99.90
47813;DHT22;34221;45.296;9.516;2024-02-28T15:26:10;15.10;99.90
47813;DHT22;34221;45.296;9.516;2024-02-28T15:26:25;15.20;99.90
47813;DHT22;34221;45.296;9.516;2024-02-28T15:26:40;15.20;99.90
47813;DHT22;34221;45.296;9.516;2024-02-28T15:26:54;15.20;99.90
47813;DHT22;34221;45.296;9.516;2024-02-28T15:27:09;15.20;99.90
47813;DHT22;34221;45.296;9.516;2024-02-28T15:27:25;15.20;99.90
47813;DHT22;34221;45.296;9.516;2024-02-28T15:27:40;15.20;99.90
47813;DHT22;34221;45.296;9.516;2024-02-28T15:27:55;15.10;99.90
47813;DHT22;34221;45.296;9.516;2024-02-28T15:28:10;15.10;99.90
47813;DHT22;34221;45.296;9.516;2024-02-28T15:28:24;15.20;99.90
47813;DHT22;34221;45.296;9.516;2024-02-28T15:28:41;15.10;99.90
47813;DHT22;34221;45.296;9.516;2024-02-28T15:28:56;15.20;99.90
47813;DHT22;34221;45.296;9.516;2024-02-28T15:29:11;15.10;99.90
47813;DHT22;34221;45.296;9.516;2024-02-28T15:29:26;15.10;99.90
47813;DHT22;34221;45.296;9.516;2024-02-28T15:29:42;15.10;99.90
47813;DHT22;34221;45.296;9.516;2024-02-28T15:29:57;15.10;99.90
47813;DHT22;34221;45.296;9.516;2024-02-28T15:30:12;15.00;99.90
47813;DHT22;34221;45.296;9.516;2024-02-28T15:30:27;15.00;99.90
47813;DHT22;34221;45.296;9.516;2024-02-28T15:30:41;15.00;99.90
47813;DHT22;34221;45.296;9.516;2024-02-28T15:30:56;15.00;99.90
47813;DHT22;34221;45.296;9.516;2024-02-28T15:31:11;15.00;99.90
47813;DHT22;34221;45.296;9.516;2024-02-28T15:31:26;15.00;99.90
47813;DHT22;34221;45.296;9.516;2024-02-28T15:31:42;15.00;99.90
47813;DHT22;34221;45.296;9.516;2024-02-28T15:31:57;15.00;99.90
47813;DHT22;34221;45.296;9.516;2024-02-28T15:32:12;15.00;99.90
47813;DHT22;34221;45.296;9.516;2024-02-28T15:32:27;15.00;99.90
47813;DHT22;34221;45.296;9.516;2024-02-28T15:32:42;15.00;99.90
47813;DHT22;34221;45.296;9.516;2024-02-28T15:32:56;14.90;99.90
47813;DHT22;34221;45.296;9.516;2024-02-28T15:33:11;14.90;99.90
47813;DHT22;34221;45.296;9.516;2024-02-28T15:33:26;14.90;99.90
47813;DHT22;34221;45.296;9.516;2024-02-28T15:33:41;14.90;99.90
47813;DHT22;34221;45.296;9.516;2024-02-28T15:33:55;14.90;99.90
47813;DHT22;34221;45.296;9.516;2024-02-28T15:34:12;14.90;99.90
47813;DHT22;34221;45.296;9.516;2024-02-28T15:34:26;14.90;99.90
47813;DHT22;34221;45.296;9.516;2024-02-28T15:34:42;14.90;99.90
47813;DHT22;34221;45.296;9.516;2024-02-28T15:34:56;14.80;99.90
47813;DHT22;34221;45.296;9.516;2024-02-28T15:35:11;14.80;99.90
47813;DHT22;34221;45.296;9.516;2024-02-28T15:35:26;14.80;99.90
47813;DHT22;34221;45.296;9.516;2024-02-28T15:35:41;14.80;99.90
47813;DHT22;34221;45.296;9.516;2024-02-28T15:35:56;14.80;99.90
47813;DHT22;34221;45.296;9.516;2024-02-28T15:36:10;14.80;99.90
47813;DHT22;34221;45.296;9.516;2024-02-28T15:36:25;14.90;99.90
47813;DHT22;34221;45.296;9.516;2024-02-28T15:36:40;14.80;99.90
47813;DHT22;34221;45.296;9.516;2024-02-28T15:36:55;14.80;99.90
47813;DHT22;34221;45.296;9.516;2024-02-28T15:37:10;14.80;99.90
47813;DHT22;34221;45.296;9.516;2024-02-28T15:37:26;14.80;99.90
47813;DHT22;34221;45.296;9.516;2024-02-28T15:37:40;14.90;99.90
47813;DHT22;34221;45.296;9.516;2024-02-28T15:37:55;14.90;99.90
47813;DHT22;34221;45.296;9.516;2024-02-28T15:38:10;14.90;99.90
47813;DHT22;34221;45.296;9.516;2024-02-28T15:38:27;14.80;99.90
47813;DHT22;34221;45.296;9.516;2024-02-28T15:38:42;14.80;99.90
47813;DHT22;34221;45.296;9.516;2024-02-28T15:38:56;14.90;99.90
47813;DHT22;34221;45.296;9.516;2024-02-28T15:39:11;14.80;99.90
47813;DHT22;34221;45.296;9.516;2024-02-28T15:39:26;14.80;99.90
47813;DHT22;34221;45.296;9.516;2024-02-28T15:39:41;14.80;99.90
47813;DHT22;34221;45.296;9.516;2024-02-28T15:39:56;14.80;99.90
47813;DHT22;34221;45.296;9.516;2024-02-28T15:40:11;14.90;99.90
47813;DHT22;34221;45.296;9.516;2024-02-28T15:40:25;14.80;99.90
47813;DHT22;34221;45.296;9.516;2024-02-28T15:40:40;14.80;99.90
47813;DHT22;34221;45.296;9.516;2024-02-28T15:40:55;14.80;99.90
47813;DHT22;34221;45.296;9.516;2024-02-28T15:41:10;14.80;99.90
47813;DHT22;34221;45.296;9.516;2024-02-28T15:41:25;14.80;99.90
47813;DHT22;34221;45.296;9.516;2024-02-28T15:41:40;14.80;99.90
47813;DHT22;34221;45.296;9.516;2024-02-28T15:41:55;14.80;99.90
47813;DHT22;34221;45.296;9.516;2024-02-28T15:42:11;14.70;99.90
47813;DHT22;34221;45.296;9.516;2024-02-28T15:42:26;14.70;99.90
47813;DHT22;34221;45.296;9.516;2024-02-28T15:42:41;14.70;99.90
47813;DHT22;34221;45.296;9.516;2024-02-28T15:42:56;14.80;99.90
47813;DHT22;34221;45.296;9.516;2024-02-28T15:43:12;14.80;99.90
47813;DHT22;34221;45.296;9.516;2024-02-28T15:43:28;14.70;99.90
47813;DHT22;34221;45.296;9.516;2024-02-28T15:43:43;14.70;99.90
47813;DHT22;34221;45.296;9.516;2024-02-28T15:43:57;14.70;99.90
47813;DHT22;34221;45.296;9.516;2024-02-28T15:44:12;14.70;99.90
47813;DHT22;34221;45.296;9.516;2024-02-28T15:44:28;14.70;99.90
47813;DHT22;34221;45.296;9.516;2024-02-28T15:44:43;14.70;99.90
47813;DHT22;34221;45.296;9.516;2024-02-28T15:44:57;14.70;99.90
47813;DHT22;34221;45.296;9.516;2024-02-28T15:45:12;14.70;99.90
47813;DHT22;34221;45.296;9.516;2024-02-28T15:45:28;14.70;99.90
47813;DHT22;34221;45.296;9.516;2024-02-28T15:45:43;14.70;99.90
47813;DHT22;34221;45.296;9.516;2024-02-28T15:46:33;14.70;99.90
47813;DHT22;34221;45.296;9.516;2024-02-28T15:46:48;14.70;99.90
47813;DHT22;34221;45.296;9.516;2024-02-28T15:47:03;14.70;99.90
47813;DHT22;34221;45.296;9.516;2024-02-28T15:47:17;14.70;99.90
47813;DHT22;34221;45.296;9.516;2024-02-28T15:47:32;14.70;99.90
47813;DHT22;34221;45.296;9.516;2024-02-28T15:47:47;14.70;99.90
47813;DHT22;34221;45.296;9.516;2024-02-28T15:48:02;14.70;99.90
47813;DHT22;34221;45.296;9.516;2024-02-28T15:48:17;14.70;99.90
47813;DHT22;34221;45.296;9.516;2024-02-28T15:48:32;14.70;99.90
47813;DHT22;34221;45.296;9.516;2024-02-28T15:48:48;14.70;99.90
47813;DHT22;34221;45.296;9.516;2024-02-28T15:49:03;14.70;99.90
47813;DHT22;34221;45.296;9.516;2024-02-28T15:49:18;14.70;99.90
47813;DHT22;34221;45.296;9.516;2024-02-28T15:49:33;14.70;99.90
47813;DHT22;34221;45.296;9.516;2024-02-28T15:49:49;14.70;99.90
47813;DHT22;34221;45.296;9.516;2024-02-28T15:50:07;14.70;99.90
47813;DHT22;34221;45.296;9.516;2024-02-28T15:50:23;14.70;99.90
47813;DHT22;34221;45.296;9.516;2024-02-28T15:50:38;14.70;99.90
47813;DHT22;34221;45.296;9.516;2024-02-28T15:50:53;14.70;99.90
47813;DHT22;34221;45.296;9.516;2024-02-28T15:51:10;14.70;99.90
47813;DHT22;34221;45.296;9.516;2024-02-28T15:51:25;14.70;99.90
47813;DHT22;34221;45.296;9.516;2024-02-28T15:51:39;14.70;99.90
47813;DHT22;34221;45.296;9.516;2024-02-28T15:51:54;14.70;99.90
47813;DHT22;34221;45.296;9.516;2024-02-28T15:52:09;14.70;99.90
47813;DHT22;34221;45.296;9.516;2024-02-28T15:52:24;14.70;99.90
47813;DHT22;34221;45.296;9.516;2024-02-28T15:52:38;14.70;99.90
47813;DHT22;34221;45.296;9.516;2024-02-28T15:52:53;14.70;99.90
47813;DHT22;34221;45.296;9.516;2024-02-28T15:53:08;14.70;99.90